Time;durP1;ratioP1;P1;durP2;ratioP2;P2;SDS_P1;SDS_P2;PMS_P1;PMS_P2;Temp;Humidity;BMP_temperature;BMP_pressure;BME280_temperature;BME280_humidity;BME280_pressure;Samples;Min_cycle;Max_cycle;Signal;HPM_P1;HPM_P2
2021/12/07 00:00:27;;;;;;;27.43;16.87;;;1.60;99.90;;;;;;5069257;28;20519;-53
2021/12/07 00:02:54;;;;;;;28.98;15.70;;;1.50;99.90;;;;;;5067855;28;20352;-56
2021/12/07 00:05:19;;;;;;;24.75;16.08;;;1.60;99.90;;;;;;5079177;28;20209;-50
2021/12/07 00:07:45;;;;;;;30.53;17.33;;;1.60;99.90;;;;;;5074524;28;20181;-52
2021/12/07 00:10:12;;;;;;;28.30;16.20;;;1.60;99.90;;;;;;5078167;28;20259;-49
2021/12/07 00:12:41;;;;;;;24.88;15.15;;;1.60;99.90;;;;;;5060938;28;20854;-54
2021/12/07 00:15:09;;;;;;;26.52;16.67;;;1.60;99.90;;;;;;5068582;28;20182;-53
2021/12/07 00:17:35;;;;;;;28.80;16.73;;;1.60;99.90;;;;;;5066599;28;20264;-51
2021/12/07 00:20:07;;;;;;;28.10;14.67;;;1.60;99.90;;;;;;5069900;28;20280;-52
2021/12/07 00:22:33;;;;;;;25.58;15.18;;;1.60;99.90;;;;;;5068556;28;20479;-53
2021/12/07 00:24:58;;;;;;;26.10;15.07;;;1.50;99.90;;;;;;5067754;28;20212;-53
2021/12/07 00:27:24;;;;;;;24.50;15.47;;;1.60;99.90;;;;;;5067779;28;20192;-50
2021/12/07 00:29:49;;;;;;;24.57;15.03;;;1.60;99.90;;;;;;5073139;28;20686;-51
2021/12/07 00:32:23;;;;;;;24.37;13.50;;;1.60;99.90;;;;;;5066854;28;20180;-50
2021/12/07 00:37:26;;;;;;;22.85;14.75;;;1.60;99.90;;;;;;5082059;28;20196;-55
2021/12/07 00:39:53;;;;;;;23.85;14.38;;;1.50;99.90;;;;;;5079313;28;20181;-53
2021/12/07 00:42:19;;;;;;;25.50;15.05;;;1.50;99.90;;;;;;5066642;28;20235;-51
2021/12/07 00:44:45;;;;;;;24.13;14.75;;;1.50;99.90;;;;;;5077687;28;20204;-55
2021/12/07 00:47:10;;;;;;;23.20;15.23;;;1.50;99.90;;;;;;5072641;28;20178;-52
2021/12/07 00:49:36;;;;;;;22.83;14.00;;;1.50;99.90;;;;;;5071029;28;20196;-53
2021/12/07 00:52:03;;;;;;;21.40;14.17;;;1.50;99.90;;;;;;5072996;28;20521;-53
2021/12/07 00:54:30;;;;;;;21.80;13.82;;;1.50;99.90;;;;;;5071309;28;20178;-53
2021/12/07 00:56:55;;;;;;;26.58;14.90;;;1.60;99.90;;;;;;5066284;28;20279;-55
2021/12/07 00:59:21;;;;;;;27.10;15.73;;;1.60;99.90;;;;;;5071924;28;20691;-53
2021/12/07 01:01:46;;;;;;;25.80;15.60;;;1.50;99.90;;;;;;5067459;28;20254;-54
2021/12/07 01:04:12;;;;;;;23.23;15.07;;;1.50;99.90;;;;;;5070095;28;20193;-54
2021/12/07 01:25:55;;;;;;;20.80;13.43;;;1.50;99.90;;;;;;5069262;28;21533;-51
2021/12/07 01:28:28;;;;;;;25.40;14.88;;;1.60;99.90;;;;;;5074317;28;20700;-51
2021/12/07 01:31:13;;;;;;;23.60;13.65;;;1.60;99.90;;;;;;5077551;28;20188;-51
2021/12/07 01:46:56;;;;;;;25.73;15.00;;;1.50;99.90;;;;;;5070802;28;20189;-49
2021/12/07 02:00:19;;;;;;;23.20;13.85;;;1.60;99.90;;;;;;5074791;28;20189;-52
2021/12/07 02:02:46;;;;;;;23.23;13.95;;;1.60;99.90;;;;;;5074392;28;20537;-52
2021/12/07 02:05:12;;;;;;;28.13;14.95;;;1.60;99.90;;;;;;5076737;28;20956;-50
2021/12/07 02:07:38;;;;;;;26.50;14.57;;;1.60;99.90;;;;;;5069174;28;20182;-51
2021/12/07 02:10:13;;;;;;;23.33;15.40;;;1.60;99.90;;;;;;5071405;28;20726;-51
2021/12/07 02:12:47;;;;;;;23.35;14.45;;;1.60;99.90;;;;;;5066831;28;20442;-54
2021/12/07 02:15:19;;;;;;;26.50;14.10;;;1.60;99.90;;;;;;5068408;28;20193;-54
2021/12/07 02:17:45;;;;;;;24.17;14.10;;;1.60;99.90;;;;;;5068444;28;20197;-52
2021/12/07 02:20:13;;;;;;;21.77;14.23;;;1.60;99.90;;;;;;5069307;28;20193;-52
2021/12/07 02:22:39;;;;;;;25.73;15.30;;;1.50;99.90;;;;;;5067704;28;20550;-54
2021/12/07 02:25:06;;;;;;;23.10;14.30;;;1.50;99.90;;;;;;5070323;28;20307;-54
2021/12/07 02:27:32;;;;;;;24.15;14.15;;;1.40;99.90;;;;;;5069223;28;20428;-50
2021/12/07 02:29:57;;;;;;;23.45;13.13;;;1.30;99.90;;;;;;5070788;28;20203;-53
2021/12/07 02:32:23;;;;;;;23.60;14.80;;;1.30;99.90;;;;;;5070655;28;20186;-56
2021/12/07 02:34:59;;;;;;;25.63;15.60;;;1.40;99.90;;;;;;5070056;28;20251;-52
2021/12/07 02:37:29;;;;;;;22.20;14.10;;;1.30;99.90;;;;;;5068901;28;20177;-53
2021/12/07 02:39:55;;;;;;;25.23;14.77;;;1.30;99.90;;;;;;5069824;28;20173;-51
2021/12/07 02:42:22;;;;;;;22.40;15.05;;;1.30;99.90;;;;;;5067404;28;20232;-50
2021/12/07 02:44:47;;;;;;;24.40;15.45;;;1.30;99.90;;;;;;5069199;28;20209;-48
2021/12/07 02:47:13;;;;;;;27.93;16.50;;;1.30;99.90;;;;;;5068798;28;20189;-52
2021/12/07 02:49:39;;;;;;;29.17;16.20;;;1.40;99.90;;;;;;5069123;28;20879;-53
2021/12/07 02:52:05;;;;;;;23.37;14.93;;;1.40;99.90;;;;;;5069739;28;20189;-53
2021/12/07 02:54:32;;;;;;;26.60;15.65;;;1.40;99.90;;;;;;5069222;28;20259;-55
2021/12/07 02:56:58;;;;;;;23.67;15.15;;;1.40;99.90;;;;;;5069023;28;20185;-56
2021/12/07 02:59:24;;;;;;;23.43;15.23;;;1.40;99.90;;;;;;5068728;28;20192;-50
2021/12/07 03:02:02;;;;;;;23.83;15.07;;;1.50;99.90;;;;;;5069727;28;20600;-54
2021/12/07 03:04:36;;;;;;;24.95;15.95;;;1.40;99.90;;;;;;5067458;28;20177;-52
2021/12/07 03:09:51;;;;;;;26.05;14.95;;;1.40;99.90;;;;;;5068942;28;20182;-51
2021/12/07 03:26:09;;;;;;;24.95;15.85;;;1.40;99.90;;;;;;5067560;28;20613;-52
2021/12/07 03:28:39;;;;;;;31.35;14.63;;;1.40;99.90;;;;;;5065492;28;20187;-55
2021/12/07 03:31:05;;;;;;;24.08;14.38;;;1.50;99.90;;;;;;5073186;28;20243;-55
2021/12/07 03:33:31;;;;;;;27.90;16.73;;;1.50;99.90;;;;;;5071930;28;20231;-51
2021/12/07 03:35:57;;;;;;;30.77;17.23;;;1.50;99.90;;;;;;5066514;28;20200;-50
2021/12/07 03:38:23;;;;;;;26.17;14.80;;;1.50;99.90;;;;;;5078954;28;20699;-52
2021/12/07 03:40:48;;;;;;;26.40;14.87;;;1.50;99.90;;;;;;5069242;28;20216;-52
2021/12/07 03:43:15;;;;;;;28.80;16.60;;;1.50;99.90;;;;;;5068535;28;20238;-51
2021/12/07 03:45:41;;;;;;;25.88;15.63;;;1.50;99.90;;;;;;5069425;28;20757;-51
2021/12/07 03:48:08;;;;;;;24.42;15.45;;;1.50;99.90;;;;;;5068951;28;20582;-51
2021/12/07 03:50:35;;;;;;;23.73;15.35;;;1.50;99.90;;;;;;5068863;28;20189;-48
2021/12/07 03:53:02;;;;;;;28.00;15.32;;;1.50;99.90;;;;;;5068277;28;20276;-52
2021/12/07 03:55:27;;;;;;;26.67;15.63;;;1.50;99.90;;;;;;5075450;28;20660;-52
2021/12/07 03:57:54;;;;;;;24.23;14.73;;;1.40;99.90;;;;;;5075142;28;20268;-52
2021/12/07 04:00:23;;;;;;;23.98;15.15;;;1.30;99.90;;;;;;5075490;28;20193;-52
2021/12/07 04:02:51;;;;;;;24.38;15.65;;;1.30;99.90;;;;;;5067838;28;20198;-54
2021/12/07 04:05:19;;;;;;;23.95;15.40;;;1.20;99.90;;;;;;5087690;28;20211;-53
2021/12/07 04:07:46;;;;;;;23.30;14.45;;;1.20;99.90;;;;;;5068941;28;20181;-50
2021/12/07 04:10:14;;;;;;;27.92;16.08;;;1.10;99.90;;;;;;5068087;28;20182;-55
2021/12/07 04:12:40;;;;;;;25.45;15.77;;;1.10;99.90;;;;;;5078322;28;20185;-52
2021/12/07 04:15:09;;;;;;;24.25;14.63;;;1.00;99.90;;;;;;5082147;28;20200;-51
2021/12/07 04:17:35;;;;;;;28.02;16.55;;;1.00;99.90;;;;;;5069703;28;20192;-51
2021/12/07 04:20:02;;;;;;;24.60;15.27;;;0.90;99.90;;;;;;5071095;28;20189;-55
2021/12/07 04:22:28;;;;;;;24.13;15.48;;;0.90;99.90;;;;;;5074267;28;20583;-51
2021/12/07 04:24:53;;;;;;;28.07;16.00;;;0.90;99.90;;;;;;5086698;28;20200;-54
2021/12/07 04:27:19;;;;;;;28.00;16.40;;;0.90;99.90;;;;;;5066746;28;20632;-54
2021/12/07 04:29:45;;;;;;;25.20;14.90;;;0.90;99.90;;;;;;5069302;28;20182;-52
2021/12/07 04:32:11;;;;;;;25.48;14.43;;;0.80;99.90;;;;;;5075185;28;20196;-50
2021/12/07 04:34:37;;;;;;;26.70;14.90;;;0.80;99.90;;;;;;5071499;28;20194;-54
2021/12/07 04:37:03;;;;;;;23.93;14.73;;;0.80;99.90;;;;;;5079314;28;20203;-54
2021/12/07 04:39:28;;;;;;;24.47;15.93;;;0.80;99.90;;;;;;5069914;28;20216;-51
2021/12/07 04:41:54;;;;;;;25.43;15.97;;;0.70;99.90;;;;;;5067156;28;20956;-53
2021/12/07 04:44:22;;;;;;;26.20;14.93;;;0.70;99.90;;;;;;5078871;28;20176;-53
2021/12/07 04:49:45;;;;;;;21.60;14.25;;;0.70;99.90;;;;;;5067404;28;20193;-49
2021/12/07 04:57:51;;;;;;;29.73;14.73;;;0.60;99.90;;;;;;5056494;28;20276;-50
2021/12/07 05:00:18;;;;;;;23.88;14.80;;;0.60;99.90;;;;;;5075854;28;20234;-52
2021/12/07 05:02:50;;;;;;;24.83;14.80;;;0.50;99.90;;;;;;5063065;28;20548;-50
2021/12/07 05:05:16;;;;;;;25.00;15.50;;;0.50;99.90;;;;;;5077716;28;20664;-48
2021/12/07 05:07:48;;;;;;;25.13;15.57;;;0.50;99.90;;;;;;5068723;28;20280;-49
2021/12/07 05:10:25;;;;;;;24.35;14.93;;;0.50;99.90;;;;;;5072509;28;20271;-52
2021/12/07 05:13:21;;;;;;;22.48;14.20;;;0.40;99.90;;;;;;5071349;28;20170;-51
2021/12/07 05:40:08;;;;;;;27.42;15.60;;;0.30;99.90;;;;;;5076339;28;20200;-52
2021/12/07 05:42:39;;;;;;;23.05;13.40;;;0.30;99.90;;;;;;5069726;28;20200;-53
2021/12/07 05:45:08;;;;;;;28.45;15.52;;;0.30;99.90;;;;;;5073948;28;20292;-56
2021/12/07 05:47:33;;;;;;;31.13;16.70;;;0.30;99.90;;;;;;5060535;28;20551;-53
2021/12/07 05:49:59;;;;;;;25.93;15.40;;;0.30;99.90;;;;;;5088197;28;20230;-54
2021/12/07 05:52:24;;;;;;;26.67;16.03;;;0.30;99.90;;;;;;5083111;28;20186;-52
2021/12/07 05:54:50;;;;;;;24.20;15.40;;;0.30;99.90;;;;;;5086310;28;20246;-58
2021/12/07 05:57:15;;;;;;;28.47;16.50;;;0.30;99.90;;;;;;5091858;28;20561;-52
2021/12/07 05:59:41;;;;;;;21.80;14.27;;;0.30;99.90;;;;;;5073095;28;20215;-53
2021/12/07 06:02:07;;;;;;;24.57;15.03;;;0.30;99.90;;;;;;5078040;28;20305;-53
2021/12/07 06:04:33;;;;;;;23.08;14.27;;;0.30;99.90;;;;;;5071054;28;20250;-52
2021/12/07 06:06:59;;;;;;;23.87;14.90;;;0.20;99.90;;;;;;5077612;28;20181;-54
2021/12/07 06:09:25;;;;;;;22.97;14.10;;;0.20;99.90;;;;;;5089108;28;20627;-55
2021/12/07 06:11:51;;;;;;;26.20;16.50;;;0.20;99.90;;;;;;5083113;28;20432;-53
2021/12/07 06:14:19;;;;;;;26.43;14.90;;;0.20;99.90;;;;;;5069561;28;20192;-50
2021/12/07 06:16:48;;;;;;;23.67;14.55;;;0.20;99.90;;;;;;5067107;28;20185;-52
2021/12/07 06:19:14;;;;;;;24.17;14.45;;;0.20;99.90;;;;;;5070538;28;20186;-53
2021/12/07 06:21:40;;;;;;;24.33;14.80;;;0.10;99.90;;;;;;5072571;28;20177;-53
2021/12/07 06:24:06;;;;;;;25.05;14.55;;;0.10;99.90;;;;;;5053720;28;20248;-55
2021/12/07 06:26:34;;;;;;;26.37;15.63;;;0.10;99.90;;;;;;5069420;28;20347;-53
2021/12/07 06:29:00;;;;;;;24.75;13.98;;;0.10;99.90;;;;;;5060373;28;20541;-55
2021/12/07 06:31:26;;;;;;;26.60;14.87;;;0.10;99.90;;;;;;5070283;28;20174;-50
2021/12/07 06:33:52;;;;;;;28.35;15.20;;;0.10;99.90;;;;;;5068801;28;20196;-53
2021/12/07 06:36:17;;;;;;;28.40;16.27;;;0.10;99.90;;;;;;5067793;28;20636;-52
2021/12/07 06:38:44;;;;;;;24.80;15.97;;;0.00;99.90;;;;;;5070235;28;20181;-51
2021/12/07 06:41:11;;;;;;;26.40;16.40;;;0.00;99.90;;;;;;5068993;28;20186;-52
2021/12/07 06:43:37;;;;;;;26.15;15.50;;;0.00;99.90;;;;;;5064689;28;20189;-50
2021/12/07 06:46:03;;;;;;;31.83;16.90;;;0.00;99.90;;;;;;5066724;28;20248;-51
2021/12/07 06:48:28;;;;;;;28.60;15.30;;;0.00;99.90;;;;;;5052273;28;20186;-49
2021/12/07 06:50:54;;;;;;;29.50;16.13;;;0.00;99.90;;;;;;5058094;28;20190;-51
2021/12/07 06:53:20;;;;;;;27.23;16.63;;;0.00;99.90;;;;;;5065511;28;20609;-54
2021/12/07 06:55:46;;;;;;;27.70;15.53;;;0.00;99.90;;;;;;5056488;28;20317;-49
2021/12/07 06:58:12;;;;;;;28.67;15.23;;;0.00;99.90;;;;;;5069068;28;20424;-54
2021/12/07 07:00:37;;;;;;;25.73;15.87;;;0.00;99.90;;;;;;5067366;28;20226;-51
2021/12/07 07:03:03;;;;;;;27.57;16.67;;;0.00;99.90;;;;;;5055292;28;20188;-49
2021/12/07 07:05:30;;;;;;;26.37;15.60;;;0.00;99.90;;;;;;5067711;28;20259;-51
2021/12/07 07:07:56;;;;;;;29.55;16.67;;;0.10;99.90;;;;;;5065733;28;21066;-54
2021/12/07 07:10:21;;;;;;;26.08;15.70;;;0.10;99.90;;;;;;5067132;28;20177;-53
2021/12/07 07:12:47;;;;;;;26.13;16.33;;;0.20;99.90;;;;;;5067318;28;20471;-53
2021/12/07 07:15:14;;;;;;;26.38;15.52;;;0.20;99.90;;;;;;5080507;28;20220;-53
2021/12/07 07:17:40;;;;;;;26.10;15.95;;;0.20;99.90;;;;;;5070236;28;20181;-50
2021/12/07 07:20:09;;;;;;;26.47;15.63;;;0.20;99.90;;;;;;5081796;28;20185;-49
2021/12/07 07:22:35;;;;;;;25.27;15.85;;;0.20;99.90;;;;;;5071122;28;20224;-53
2021/12/07 07:25:01;;;;;;;27.67;16.60;;;0.30;99.90;;;;;;5077968;28;20213;-52
2021/12/07 07:27:27;;;;;;;27.58;18.15;;;0.30;99.90;;;;;;5067090;28;20181;-52
2021/12/07 07:29:53;;;;;;;25.13;16.50;;;0.20;99.90;;;;;;5081378;28;20647;-53
2021/12/07 07:32:18;;;;;;;28.73;16.10;;;0.30;99.90;;;;;;5086932;28;20230;-51
2021/12/07 07:34:44;;;;;;;27.73;16.83;;;0.30;99.90;;;;;;5062003;28;20177;-52
2021/12/07 07:37:09;;;;;;;34.67;16.37;;;0.30;99.90;;;;;;5085159;28;20192;-53
2021/12/07 07:39:35;;;;;;;26.60;16.73;;;0.40;99.90;;;;;;5077588;28;20666;-54
2021/12/07 07:42:01;;;;;;;27.90;17.33;;;0.40;99.90;;;;;;5078969;28;20186;-53
2021/12/07 07:44:26;;;;;;;26.80;17.20;;;0.40;99.90;;;;;;5067881;28;20691;-53
2021/12/07 07:46:52;;;;;;;29.97;17.80;;;0.50;99.90;;;;;;5063547;28;20527;-52
2021/12/07 07:49:17;;;;;;;33.60;17.10;;;0.60;99.90;;;;;;5067027;28;20243;-51
2021/12/07 07:51:45;;;;;;;27.40;16.13;;;0.70;99.90;;;;;;5080009;28;20189;-56
2021/12/07 07:54:11;;;;;;;23.92;15.77;;;0.80;99.90;;;;;;5056533;28;20192;-51
2021/12/07 07:56:37;;;;;;;29.80;17.80;;;1.00;99.90;;;;;;5084159;28;20356;-52
2021/12/07 07:59:04;;;;;;;29.17;17.02;;;1.00;99.90;;;;;;5080818;28;20674;-57
2021/12/07 08:01:31;;;;;;;26.40;16.45;;;1.20;99.90;;;;;;5068061;28;20209;-53
2021/12/07 08:03:58;;;;;;;29.35;16.88;;;1.40;99.90;;;;;;5067521;28;22426;-51
2021/12/07 08:06:24;;;;;;;34.03;17.67;;;1.80;99.90;;;;;;5067562;28;20209;-52
2021/12/07 08:08:49;;;;;;;23.87;15.70;;;2.10;99.90;;;;;;5066839;28;20807;-53
2021/12/07 08:11:15;;;;;;;23.33;15.90;;;2.30;99.90;;;;;;5080423;28;20694;-52
2021/12/07 08:13:41;;;;;;;25.70;16.60;;;2.60;99.90;;;;;;5068462;28;20184;-52
2021/12/07 08:16:15;;;;;;;20.40;15.00;;;3.10;99.90;;;;;;5067746;28;20189;-49
2021/12/07 08:18:41;;;;;;;25.73;16.08;;;3.50;99.90;;;;;;5073401;28;20185;-53
2021/12/07 08:21:07;;;;;;;22.98;16.00;;;3.90;99.90;;;;;;5070174;28;20293;-51
2021/12/07 08:23:33;;;;;;;21.50;16.40;;;4.30;99.90;;;;;;5072881;28;20949;-51
2021/12/07 08:25:58;;;;;;;22.47;16.17;;;4.70;99.90;;;;;;5068249;28;20216;-51
2021/12/07 08:28:24;;;;;;;21.10;15.87;;;5.20;99.90;;;;;;5083795;28;20521;-49
2021/12/07 08:30:50;;;;;;;23.60;16.60;;;5.50;99.90;;;;;;5078210;28;20195;-50
2021/12/07 08:33:15;;;;;;;22.67;16.80;;;5.60;99.90;;;;;;5084449;28;20253;-49
2021/12/07 08:35:41;;;;;;;20.90;14.80;;;5.90;99.90;;;;;;5076439;28;20195;-54
2021/12/07 08:38:07;;;;;;;23.37;16.60;;;6.10;99.80;;;;;;5087515;28;20260;-51
2021/12/07 08:40:34;;;;;;;18.70;14.87;;;6.00;99.60;;;;;;5085868;28;20192;-53
2021/12/07 08:43:00;;;;;;;20.67;15.93;;;6.20;99.10;;;;;;5083144;28;20688;-53
2021/12/07 08:45:27;;;;;;;21.90;16.40;;;6.60;97.70;;;;;;5080284;28;20455;-53
2021/12/07 08:47:54;;;;;;;20.30;15.60;;;6.50;97.30;;;;;;5072075;28;21035;-49
2021/12/07 08:50:25;;;;;;;19.13;14.60;;;6.90;96.80;;;;;;5071510;28;20427;-53
2021/12/07 08:52:52;;;;;;;20.50;15.87;;;6.90;96.10;;;;;;5071990;28;20416;-52
2021/12/07 09:00:50;;;;;;;25.87;17.43;;;7.10;94.50;;;;;;5082903;28;20450;-50
2021/12/07 09:03:15;;;;;;;22.63;17.10;;;7.30;94.20;;;;;;5071526;28;20415;-53
2021/12/07 09:05:41;;;;;;;21.07;17.00;;;7.40;94.40;;;;;;5069762;28;20455;-51
2021/12/07 09:08:07;;;;;;;21.73;16.27;;;7.70;93.10;;;;;;5083036;28;20181;-49
2021/12/07 09:10:32;;;;;;;19.90;15.77;;;8.00;92.70;;;;;;5070597;28;20199;-51
2021/12/07 09:12:58;;;;;;;22.40;17.20;;;8.20;92.20;;;;;;5082824;28;20787;-55
2021/12/07 09:15:24;;;;;;;22.00;15.87;;;8.50;90.90;;;;;;5089003;28;20189;-49
2021/12/07 09:17:49;;;;;;;21.53;16.07;;;8.20;90.60;;;;;;5081607;28;20188;-52
2021/12/07 09:20:16;;;;;;;23.20;17.53;;;8.40;90.30;;;;;;5084453;28;20271;-54
2021/12/07 09:22:47;;;;;;;19.27;16.43;;;8.40;90.00;;;;;;5090782;28;20225;-56
2021/12/07 09:25:13;;;;;;;21.13;16.57;;;8.60;89.20;;;;;;5087797;28;20459;-49
2021/12/07 09:27:40;;;;;;;19.20;15.80;;;8.70;89.20;;;;;;5091262;28;20884;-55
2021/12/07 09:30:10;;;;;;;23.10;18.10;;;9.30;88.90;;;;;;5072666;28;20724;-53
2021/12/07 09:32:35;;;;;;;22.53;17.40;;;9.60;85.80;;;;;;5088454;28;20418;-52
2021/12/07 09:35:02;;;;;;;26.10;18.73;;;9.70;84.30;;;;;;5083221;28;20517;-54
2021/12/07 09:37:28;;;;;;;23.87;18.33;;;9.70;85.40;;;;;;5070941;28;20185;-53
2021/12/07 09:39:54;;;;;;;21.50;16.77;;;10.10;81.30;;;;;;5082263;28;20939;-50
2021/12/07 09:42:20;;;;;;;21.30;17.87;;;10.20;78.80;;;;;;5078819;28;20181;-54
2021/12/07 09:44:46;;;;;;;21.83;16.90;;;9.90;77.90;;;;;;5090530;28;20215;-53
2021/12/07 09:47:12;;;;;;;22.10;18.80;;;9.70;80.10;;;;;;5055346;28;20509;-53
2021/12/07 09:49:38;;;;;;;21.73;17.10;;;8.90;81.20;;;;;;5077675;28;20497;-50
2021/12/07 09:52:04;;;;;;;24.53;18.63;;;8.40;84.00;;;;;;5075820;28;20554;-51
2021/12/07 09:54:29;;;;;;;22.90;17.80;;;8.00;87.20;;;;;;5070836;28;20193;-52
2021/12/07 09:56:55;;;;;;;24.83;17.30;;;7.20;89.80;;;;;;5080056;28;20204;-52
2021/12/07 09:59:21;;;;;;;22.13;17.73;;;6.80;91.20;;;;;;5090345;28;20546;-52
2021/12/07 10:01:47;;;;;;;22.30;17.50;;;6.60;92.20;;;;;;5079576;28;20186;-50
2021/12/07 10:04:12;;;;;;;22.63;16.52;;;6.00;93.20;;;;;;5052487;28;20212;-51
2021/12/07 10:06:38;;;;;;;22.30;16.50;;;5.70;94.70;;;;;;5069239;28;20197;-54
2021/12/07 10:09:07;;;;;;;23.77;17.70;;;5.20;96.50;;;;;;5070381;28;20193;-49
2021/12/07 10:11:32;;;;;;;27.48;20.05;;;4.90;98.50;;;;;;5070008;28;20750;-51
2021/12/07 10:13:58;;;;;;;24.90;18.30;;;4.60;99.90;;;;;;5068977;28;20260;-53
2021/12/07 10:16:24;;;;;;;25.40;17.50;;;4.50;99.90;;;;;;5078159;28;21323;-54
2021/12/07 10:18:50;;;;;;;22.67;17.50;;;4.40;99.90;;;;;;5090188;28;20204;-49
2021/12/07 10:21:24;;;;;;;24.23;16.65;;;4.30;99.90;;;;;;5079507;28;20192;-54
2021/12/07 10:23:54;;;;;;;23.88;16.10;;;4.20;99.90;;;;;;5088819;28;20229;-48
2021/12/07 10:26:29;;;;;;;24.30;17.15;;;4.10;99.90;;;;;;5068950;28;20561;-51
2021/12/07 10:28:57;;;;;;;25.13;16.65;;;4.10;99.90;;;;;;5080492;28;20235;-51
2021/12/07 10:31:31;;;;;;;27.95;17.52;;;4.00;99.90;;;;;;5076167;28;20185;-50
2021/12/07 10:34:00;;;;;;;28.60;17.45;;;4.10;99.90;;;;;;5076757;28;20177;-52
2021/12/07 10:36:36;;;;;;;30.27;17.38;;;4.10;99.90;;;;;;5077162;28;20177;-52
2021/12/07 10:39:06;;;;;;;24.08;16.85;;;4.20;99.90;;;;;;5082425;28;20185;-52
2021/12/07 10:41:37;;;;;;;24.13;17.88;;;4.30;99.90;;;;;;5068347;28;20205;-50
2021/12/07 10:44:07;;;;;;;26.42;16.92;;;4.40;99.90;;;;;;5068650;28;20964;-54
2021/12/07 10:46:41;;;;;;;23.35;17.15;;;4.50;99.90;;;;;;5076667;28;20200;-53
2021/12/07 10:49:10;;;;;;;26.90;18.30;;;4.60;99.90;;;;;;5086081;28;20185;-58
2021/12/07 10:51:36;;;;;;;23.77;16.88;;;4.70;99.90;;;;;;5082884;28;20185;-54
2021/12/07 10:54:03;;;;;;;24.55;17.80;;;4.60;99.90;;;;;;5088160;28;20251;-55
2021/12/07 10:56:34;;;;;;;25.40;18.42;;;4.50;99.90;;;;;;5057648;28;20182;-51
2021/12/07 10:59:03;;;;;;;26.08;17.85;;;4.50;99.90;;;;;;5068903;28;20228;-55
2021/12/07 11:01:36;;;;;;;25.98;18.52;;;4.50;99.90;;;;;;5064460;28;20181;-50
2021/12/07 11:04:33;;;;;;;25.83;17.95;;;4.50;99.90;;;;;;5068250;28;20278;-54
2021/12/07 11:07:07;;;;;;;25.02;16.20;;;4.50;99.90;;;;;;5068449;28;20181;-50
2021/12/07 11:10:04;;;;;;;23.63;16.58;;;4.50;99.90;;;;;;5065412;28;20701;-52
2021/12/07 11:12:37;;;;;;;23.80;16.25;;;4.50;99.90;;;;;;5067903;28;20189;-52
2021/12/07 11:15:12;;;;;;;23.42;16.88;;;4.50;99.90;;;;;;5065889;28;20196;-52
2021/12/07 11:17:38;;;;;;;26.77;17.73;;;4.40;99.90;;;;;;5086425;28;20218;-53
2021/12/07 11:20:05;;;;;;;25.23;16.43;;;4.40;99.90;;;;;;5069935;28;20186;-51
2021/12/07 11:22:33;;;;;;;22.48;16.83;;;4.30;99.90;;;;;;5069379;28;20280;-53
2021/12/07 11:25:03;;;;;;;25.70;16.85;;;4.30;99.90;;;;;;5050094;28;20224;-49
2021/12/07 11:30:28;;;;;;;24.13;17.13;;;4.20;99.90;;;;;;5061379;28;20181;-51
2021/12/07 11:32:57;;;;;;;27.10;18.48;;;4.20;99.90;;;;;;5055719;28;20181;-54
2021/12/07 11:35:30;;;;;;;27.73;18.27;;;4.10;99.90;;;;;;5069437;28;20189;-54
2021/12/07 11:37:58;;;;;;;23.52;16.90;;;4.10;99.90;;;;;;5086110;28;20181;-55
2021/12/07 11:40:28;;;;;;;25.65;17.60;;;4.10;99.90;;;;;;5070333;28;20185;-52
2021/12/07 11:42:55;;;;;;;24.67;17.50;;;4.10;99.90;;;;;;5074630;28;20651;-51
2021/12/07 11:45:30;;;;;;;29.75;18.73;;;4.10;99.90;;;;;;5070079;28;20660;-52
2021/12/07 11:48:03;;;;;;;29.58;19.27;;;4.10;99.90;;;;;;5066034;28;20180;-51
2021/12/07 11:50:37;;;;;;;26.58;17.83;;;4.10;99.90;;;;;;5075949;28;20185;-52
2021/12/07 11:53:12;;;;;;;25.10;17.80;;;4.10;99.90;;;;;;5075927;28;20559;-54
2021/12/07 11:55:41;;;;;;;28.95;18.48;;;4.10;99.90;;;;;;5072595;28;20264;-53
2021/12/07 11:58:08;;;;;;;30.33;17.67;;;4.00;99.90;;;;;;5066602;28;20185;-52
2021/12/07 12:00:47;;;;;;;26.90;18.40;;;4.00;99.90;;;;;;5069558;28;20178;-52
2021/12/07 12:03:15;;;;;;;27.23;18.15;;;4.00;99.90;;;;;;5081495;28;20189;-53
2021/12/07 12:05:44;;;;;;;25.77;16.90;;;4.00;99.90;;;;;;5070863;28;20695;-48
2021/12/07 12:08:13;;;;;;;24.10;16.13;;;4.10;99.90;;;;;;5085812;28;20639;-50
2021/12/07 12:10:45;;;;;;;24.83;17.75;;;4.10;99.90;;;;;;5069816;28;20260;-50
2021/12/07 12:13:50;;;;;;;26.20;18.55;;;4.00;99.90;;;;;;5065123;28;20317;-49
2021/12/07 12:16:41;;;;;;;25.33;17.63;;;4.00;99.90;;;;;;5080206;28;20571;-58
2021/12/07 12:19:37;;;;;;;25.65;17.60;;;4.00;99.90;;;;;;5054912;28;20201;-53
2021/12/07 12:22:37;;;;;;;26.38;17.92;;;4.00;99.90;;;;;;5087037;28;20565;-51
2021/12/07 12:25:09;;;;;;;24.33;17.10;;;4.00;99.90;;;;;;5066090;28;20296;-54
2021/12/07 12:27:35;;;;;;;25.50;18.25;;;4.10;99.90;;;;;;5067820;28;20189;-53
2021/12/07 12:30:16;;;;;;;29.63;18.48;;;4.00;99.90;;;;;;5066801;28;20185;-57
2021/12/07 12:32:43;;;;;;;27.33;18.80;;;4.10;99.90;;;;;;5068475;28;20178;-52
2021/12/07 12:35:13;;;;;;;26.85;16.85;;;4.00;99.90;;;;;;5067160;28;20540;-57
2021/12/07 12:37:44;;;;;;;30.60;19.33;;;4.00;99.90;;;;;;5068016;28;20659;-52
2021/12/07 12:40:19;;;;;;;28.23;18.50;;;4.00;99.90;;;;;;5068576;28;20218;-54
2021/12/07 12:42:48;;;;;;;29.30;18.48;;;4.00;99.90;;;;;;5065117;28;20246;-54
2021/12/07 12:45:27;;;;;;;29.33;19.52;;;4.10;99.90;;;;;;5066569;28;20224;-54
2021/12/07 12:48:04;;;;;;;26.73;18.35;;;4.10;99.90;;;;;;5061016;28;20283;-51
2021/12/07 12:50:51;;;;;;;27.02;18.30;;;4.00;99.90;;;;;;5066768;28;20574;-53
2021/12/07 12:53:23;;;;;;;28.75;18.30;;;3.90;99.90;;;;;;5073562;28;20211;-51
2021/12/07 12:55:57;;;;;;;30.23;19.25;;;3.90;99.90;;;;;;5071115;28;20189;-52
2021/12/07 12:58:29;;;;;;;25.85;17.13;;;3.90;99.90;;;;;;5070502;28;20681;-54
2021/12/07 13:01:20;;;;;;;27.58;17.90;;;3.80;99.90;;;;;;5088419;28;20212;-52
2021/12/07 13:03:57;;;;;;;27.98;18.50;;;3.90;99.90;;;;;;5070183;28;20181;-50
2021/12/07 13:06:39;;;;;;;26.70;18.08;;;3.90;99.90;;;;;;5068660;28;20213;-51
2021/12/07 13:09:29;;;;;;;26.73;18.25;;;3.90;99.90;;;;;;5081020;28;20185;-51
2021/12/07 13:12:06;;;;;;;29.58;18.48;;;3.80;99.90;;;;;;5061335;28;20221;-54
2021/12/07 13:14:38;;;;;;;31.50;17.63;;;3.70;99.90;;;;;;5061982;28;20289;-57
2021/12/07 13:17:15;;;;;;;28.35;19.02;;;3.70;99.90;;;;;;5081451;28;20230;-54
2021/12/07 13:20:18;;;;;;;28.23;18.20;;;3.80;99.90;;;;;;5071408;28;20753;-54
2021/12/07 13:23:02;;;;;;;26.13;17.98;;;3.80;99.90;;;;;;5061311;28;20254;-54
2021/12/07 13:25:38;;;;;;;26.55;17.40;;;3.80;99.90;;;;;;5069031;28;20716;-55
2021/12/07 13:28:11;;;;;;;26.35;17.50;;;3.80;99.90;;;;;;5070667;28;20276;-48
2021/12/07 13:30:49;;;;;;;31.50;18.30;;;3.70;99.90;;;;;;5059314;28;20185;-54
2021/12/07 13:33:17;;;;;;;28.23;18.35;;;3.60;99.90;;;;;;5071463;28;20174;-53
2021/12/07 13:35:44;;;;;;;25.80;18.10;;;3.60;99.90;;;;;;5079009;28;20268;-54
2021/12/07 13:38:27;;;;;;;31.35;19.20;;;3.70;99.90;;;;;;5080455;28;20225;-50
2021/12/07 13:41:12;;;;;;;25.55;17.33;;;3.60;99.90;;;;;;5081423;28;20220;-53
2021/12/07 13:43:39;;;;;;;28.95;17.70;;;3.60;99.90;;;;;;5070514;28;20181;-60
2021/12/07 13:46:17;;;;;;;28.77;17.98;;;3.60;99.90;;;;;;5071539;28;20213;-52
2021/12/07 13:48:45;;;;;;;28.80;18.25;;;3.60;99.90;;;;;;5070831;28;20177;-52
2021/12/07 13:51:13;;;;;;;27.92;19.13;;;3.60;99.90;;;;;;5070256;28;20247;-54
2021/12/07 13:53:41;;;;;;;28.52;18.45;;;3.60;99.90;;;;;;5075186;28;20196;-53
2021/12/07 13:56:08;;;;;;;30.92;19.10;;;3.60;99.90;;;;;;5080933;28;20185;-54
2021/12/07 13:58:50;;;;;;;26.33;18.25;;;3.70;99.90;;;;;;5082912;28;20189;-52
2021/12/07 14:01:16;;;;;;;25.70;17.63;;;3.60;99.90;;;;;;5056004;28;20193;-54
2021/12/07 14:03:44;;;;;;;27.40;17.13;;;3.70;99.90;;;;;;5084837;28;21059;-52
2021/12/07 14:06:09;;;;;;;30.48;17.90;;;3.60;99.90;;;;;;5076590;28;20212;-52
2021/12/07 14:08:35;;;;;;;31.37;18.70;;;3.60;99.90;;;;;;5079201;28;20640;-54
2021/12/07 14:11:01;;;;;;;24.63;16.90;;;3.60;99.90;;;;;;5082161;28;20213;-48
2021/12/07 14:13:27;;;;;;;28.25;17.83;;;3.50;99.90;;;;;;5067549;28;20274;-52
2021/12/07 14:15:52;;;;;;;26.83;17.90;;;3.60;99.90;;;;;;5069552;28;20225;-52
2021/12/07 14:18:22;;;;;;;30.07;18.50;;;3.50;99.90;;;;;;5068998;28;20201;-52
2021/12/07 14:20:57;;;;;;;31.17;19.42;;;3.50;99.90;;;;;;5068446;28;20215;-54
2021/12/07 14:23:29;;;;;;;26.33;18.25;;;3.60;99.90;;;;;;5066860;28;20251;-53
2021/12/07 14:25:59;;;;;;;30.52;18.92;;;3.60;99.90;;;;;;5066803;28;20899;-52
2021/12/07 14:28:27;;;;;;;28.30;18.92;;;3.60;99.90;;;;;;5070981;28;20797;-51